createdAt,value
2022-12-13T00:02:10.271Z,20.60
2022-12-13T00:04:38.601Z,20.55
2022-12-13T00:07:06.817Z,22.95
2022-12-13T00:09:35.397Z,24.90
2022-12-13T00:12:05.137Z,20.58
2022-12-13T00:14:33.702Z,20.73
2022-12-13T00:17:01.990Z,21.70
2022-12-13T00:19:30.296Z,22.23
2022-12-13T00:21:58.526Z,19.52
2022-12-13T00:24:26.712Z,18.80
2022-12-13T00:26:56.592Z,26.23
2022-12-13T00:29:26.433Z,22.52
2022-12-13T00:32:01.946Z,22.63
2022-12-13T00:34:30.588Z,20.80
2022-12-13T00:37:04.869Z,19.45
2022-12-13T00:39:33.115Z,23.35
2022-12-13T00:42:01.336Z,20.02
2022-12-13T00:44:31.230Z,18.77
2022-12-13T00:46:59.560Z,18.27
2022-12-13T00:49:27.749Z,16.25
2022-12-13T00:51:55.985Z,18.08
2022-12-13T00:54:24.208Z,17.40
2022-12-13T00:56:52.575Z,15.60
2022-12-13T00:59:20.763Z,16.33
2022-12-13T01:01:50.631Z,15.68
2022-12-13T01:04:18.909Z,20.85
2022-12-13T01:06:54.338Z,12.23
2022-12-13T01:09:27.164Z,22.90
2022-12-13T01:11:58.786Z,17.48
2022-12-13T01:14:27.500Z,18.85
2022-12-13T01:16:57.375Z,18.65
2022-12-13T01:19:27.275Z,16.75
2022-12-13T01:21:56.044Z,18.20
2022-12-13T01:24:26.053Z,18.73
2022-12-13T01:26:57.201Z,19.08
2022-12-13T01:29:26.161Z,14.68
2022-12-13T01:31:56.148Z,15.25
2022-12-13T01:34:26.484Z,15.20
2022-12-13T01:36:58.401Z,23.20
2022-12-13T01:39:28.293Z,13.23
2022-12-13T01:41:59.827Z,15.20
2022-12-13T01:45:00.916Z,15.05
2022-12-13T01:47:34.776Z,18.20
2022-12-13T01:50:07.618Z,14.80
2022-12-13T01:52:39.593Z,12.95
2022-12-13T01:55:09.663Z,11.57
2022-12-13T01:57:45.436Z,16.00
2022-12-13T02:00:15.256Z,11.48
2022-12-13T02:02:45.629Z,14.70
2022-12-13T02:05:20.814Z,19.17
2022-12-13T02:07:49.959Z,17.27
2022-12-13T02:10:19.148Z,14.95
2022-12-13T02:12:47.540Z,13.82
2022-12-13T02:15:18.660Z,15.00
2022-12-13T02:18:09.177Z,17.02
2022-12-13T02:20:56.508Z,15.98
2022-12-13T02:23:50.574Z,13.43
2022-12-13T02:26:49.270Z,15.13
2022-12-13T02:29:48.741Z,10.35
2022-12-13T02:32:25.936Z,14.05
2022-12-13T02:35:01.808Z,16.02
2022-12-13T02:37:38.168Z,16.02
2022-12-13T02:40:10.086Z,17.58
2022-12-13T02:42:41.554Z,15.15
2022-12-13T02:45:20.287Z,14.73
2022-12-13T02:47:53.670Z,17.77
2022-12-13T02:50:23.092Z,13.02
2022-12-13T02:52:52.584Z,19.83
2022-12-13T02:55:25.166Z,17.13
2022-12-13T02:57:56.419Z,15.70
2022-12-13T03:00:29.266Z,19.08
2022-12-13T03:03:14.037Z,13.82
2022-12-13T03:06:06.364Z,21.33
2022-12-13T03:08:46.380Z,19.15
2022-12-13T03:11:17.633Z,16.50
2022-12-13T03:13:51.137Z,16.85
2022-12-13T03:16:39.349Z,12.73
2022-12-13T03:19:11.206Z,14.77
2022-12-13T03:21:47.078Z,14.13
2022-12-13T03:24:19.176Z,14.63
2022-12-13T03:26:48.703Z,16.85
2022-12-13T03:29:24.115Z,12.80
2022-12-13T03:31:53.266Z,17.05
2022-12-13T03:34:23.700Z,19.65
2022-12-13T03:36:52.479Z,12.60
2022-12-13T03:39:21.355Z,17.40
2022-12-13T03:41:50.605Z,16.05
2022-12-13T03:44:18.885Z,15.73
2022-12-13T03:46:47.187Z,16.80
2022-12-13T03:49:17.514Z,18.88
2022-12-13T03:51:47.936Z,17.10
2022-12-13T03:54:16.306Z,16.80
2022-12-13T03:56:44.621Z,19.65
2022-12-13T03:59:12.853Z,16.88
2022-12-13T04:01:41.176Z,20.63
2022-12-13T04:04:09.530Z,18.48
2022-12-13T04:06:37.727Z,16.48
2022-12-13T04:09:07.352Z,19.60
2022-12-13T04:11:52.646Z,16.40
2022-12-13T04:14:22.220Z,21.80
2022-12-13T04:16:51.814Z,17.13
2022-12-13T04:19:23.014Z,16.48
2022-12-13T04:21:54.398Z,14.50
2022-12-13T04:24:30.898Z,16.55
2022-12-13T04:27:00.537Z,19.45
2022-12-13T04:29:34.311Z,14.75
2022-12-13T04:32:03.753Z,15.43
2022-12-13T04:34:36.876Z,16.75
2022-12-13T04:37:06.053Z,16.45
2022-12-13T04:39:35.899Z,19.55
2022-12-13T04:42:05.636Z,24.58
2022-12-13T04:44:37.088Z,59.72
2022-12-13T04:47:05.609Z,56.63
2022-12-13T04:49:34.239Z,41.55
2022-12-13T04:52:03.288Z,40.42
2022-12-13T04:54:36.685Z,28.95
2022-12-13T04:57:08.318Z,28.08
2022-12-13T04:59:36.896Z,18.90
2022-12-13T05:02:05.940Z,16.83
2022-12-13T05:04:34.485Z,19.88
2022-12-13T05:07:03.094Z,16.17
2022-12-13T05:09:31.390Z,14.77
2022-12-13T05:12:01.635Z,16.92
2022-12-13T05:14:31.938Z,15.30
2022-12-13T05:17:00.758Z,16.42
2022-12-13T05:19:30.937Z,17.48
2022-12-13T05:22:02.002Z,10.35
2022-12-13T05:24:31.456Z,13.65
2022-12-13T05:26:59.735Z,11.05
2022-12-13T05:29:28.422Z,11.23
2022-12-13T05:31:58.131Z,10.38
2022-12-13T05:34:26.653Z,13.15
2022-12-13T05:36:57.557Z,12.95
2022-12-13T05:39:28.870Z,12.68
2022-12-13T05:42:02.097Z,13.63
2022-12-13T05:44:31.768Z,12.38
2022-12-13T05:47:02.797Z,9.75
2022-12-13T05:49:32.230Z,11.45
2022-12-13T05:52:00.636Z,12.70
2022-12-13T05:54:29.009Z,11.45
2022-12-13T05:56:57.190Z,9.40
2022-12-13T05:59:25.429Z,13.88
2022-12-13T06:01:53.692Z,11.70
2022-12-13T06:04:23.674Z,20.42
2022-12-13T06:06:52.374Z,35.83
2022-12-13T06:09:20.736Z,14.45
2022-12-13T06:11:49.357Z,20.08
2022-12-13T06:14:21.927Z,30.50
2022-12-13T06:16:54.388Z,14.65
2022-12-13T06:19:25.048Z,16.70
2022-12-13T06:21:55.288Z,13.57
2022-12-13T06:24:27.492Z,13.98
2022-12-13T06:26:55.709Z,12.88
2022-12-13T06:29:25.812Z,12.40
2022-12-13T06:32:01.271Z,9.43
2022-12-13T06:34:34.713Z,11.80
2022-12-13T06:37:05.394Z,15.32
2022-12-13T06:39:33.965Z,8.98
2022-12-13T06:42:03.357Z,12.55
2022-12-13T06:44:31.760Z,8.57
2022-12-13T06:47:10.280Z,12.05
2022-12-13T06:49:44.361Z,18.58
2022-12-13T06:52:13.941Z,20.60
2022-12-13T06:54:42.929Z,12.48
2022-12-13T06:57:12.004Z,10.20
2022-12-13T06:59:40.950Z,10.55
2022-12-13T07:02:15.403Z,13.05
2022-12-13T07:04:56.406Z,12.70
2022-12-13T07:07:25.889Z,20.75
2022-12-13T07:09:54.800Z,13.48
2022-12-13T07:12:23.380Z,13.10
2022-12-13T07:14:51.700Z,14.38
2022-12-13T07:17:32.935Z,11.38
2022-12-13T07:20:08.374Z,13.25
2022-12-13T07:22:44.765Z,11.80
2022-12-13T07:25:28.172Z,12.68
2022-12-13T07:28:01.573Z,15.98
2022-12-13T07:30:30.985Z,11.80
2022-12-13T07:32:59.298Z,12.35
2022-12-13T07:35:29.135Z,12.60
2022-12-13T07:37:57.343Z,26.20
2022-12-13T07:40:25.882Z,15.02
2022-12-13T07:42:54.693Z,11.95
2022-12-13T07:45:24.142Z,11.25
2022-12-13T07:47:52.358Z,11.80
2022-12-13T07:50:24.408Z,13.95
2022-12-13T07:52:58.001Z,10.52
2022-12-13T07:55:33.559Z,9.60
2022-12-13T07:58:10.590Z,10.02
2022-12-13T08:00:39.345Z,15.73
2022-12-13T08:03:11.051Z,16.08
2022-12-13T08:05:41.715Z,14.52
2022-12-13T08:08:11.857Z,10.77
2022-12-13T08:10:40.363Z,12.35
2022-12-13T08:13:08.623Z,10.52
2022-12-13T08:15:36.835Z,6.78
2022-12-13T08:18:05.238Z,13.57
2022-12-13T08:20:36.144Z,13.02
2022-12-13T08:23:04.351Z,6.75
2022-12-13T08:25:33.964Z,8.70
2022-12-13T08:28:02.741Z,6.55
2022-12-13T08:30:32.454Z,11.00
2022-12-13T08:33:05.337Z,5.93
2022-12-13T08:35:34.998Z,11.50
2022-12-13T08:38:04.349Z,5.95
2022-12-13T08:40:34.920Z,5.90
2022-12-13T08:43:03.589Z,7.43
2022-12-13T08:45:34.195Z,7.60
2022-12-13T08:48:03.401Z,11.35
2022-12-13T08:50:33.066Z,10.27
2022-12-13T08:53:01.901Z,7.45
2022-12-13T08:55:31.631Z,8.45
2022-12-13T08:58:08.493Z,11.13
2022-12-13T09:00:37.386Z,12.30
2022-12-13T09:03:09.776Z,9.23
2022-12-13T09:05:46.101Z,7.00
2022-12-13T09:08:23.978Z,9.38
2022-12-13T09:10:59.810Z,8.75
2022-12-13T09:13:31.333Z,5.40
2022-12-13T09:16:01.514Z,19.60
2022-12-13T09:18:34.819Z,6.20
2022-12-13T09:21:11.018Z,6.55
2022-12-13T09:23:45.804Z,8.05
2022-12-13T09:26:16.428Z,7.78
2022-12-13T09:28:46.194Z,7.10
2022-12-13T09:31:17.447Z,4.82
2022-12-13T09:33:46.853Z,7.20
2022-12-13T09:36:17.775Z,4.07
2022-12-13T09:38:46.305Z,5.03
2022-12-13T09:41:29.289Z,10.15
2022-12-13T09:44:01.295Z,9.63
2022-12-13T09:46:34.716Z,8.77
2022-12-13T09:49:23.157Z,3.03
2022-12-13T09:52:10.656Z,3.88
2022-12-13T09:54:48.369Z,8.25
2022-12-13T09:57:32.204Z,5.85
2022-12-13T10:00:05.361Z,6.05
2022-12-13T10:02:40.797Z,4.32
2022-12-13T10:05:33.690Z,8.30
2022-12-13T10:08:07.534Z,2.83
2022-12-13T10:10:35.865Z,9.07
2022-12-13T10:13:14.611Z,15.05
2022-12-13T10:15:48.608Z,17.05
2022-12-13T10:18:26.266Z,10.00
2022-12-13T10:20:55.511Z,7.22
2022-12-13T10:23:38.592Z,6.13
2022-12-13T10:26:24.591Z,5.10
2022-12-13T10:29:04.155Z,4.43
2022-12-13T10:31:41.985Z,8.68
2022-12-13T10:34:21.366Z,6.32
2022-12-13T10:36:50.066Z,5.82
2022-12-13T10:39:20.262Z,5.65
2022-12-13T10:41:48.560Z,7.75
2022-12-13T10:44:23.099Z,6.82
2022-12-13T10:47:06.321Z,10.02
2022-12-13T10:49:40.972Z,5.65
2022-12-13T10:52:31.374Z,5.28
2022-12-13T10:55:03.369Z,7.35
2022-12-13T10:57:32.473Z,9.70
2022-12-13T11:00:00.741Z,8.02
2022-12-13T11:02:38.812Z,8.43
2022-12-13T11:05:26.276Z,7.90
2022-12-13T11:07:55.483Z,8.75
2022-12-13T11:10:30.974Z,6.40
2022-12-13T11:13:02.829Z,9.25
2022-12-13T11:15:33.243Z,6.93
2022-12-13T11:18:05.797Z,6.15
2022-12-13T11:20:36.923Z,16.27
2022-12-13T11:23:08.277Z,7.10
2022-12-13T11:25:44.392Z,9.00
2022-12-13T11:28:36.582Z,7.90
2022-12-13T11:31:15.440Z,8.73
2022-12-13T11:33:55.347Z,7.78
2022-12-13T11:36:36.225Z,6.10
2022-12-13T11:39:15.706Z,8.07
2022-12-13T11:41:50.332Z,7.88
2022-12-13T11:44:25.302Z,8.07
2022-12-13T11:46:56.205Z,7.72
2022-12-13T11:49:35.220Z,8.43
2022-12-13T11:52:07.411Z,12.02
2022-12-13T11:54:44.315Z,8.55
2022-12-13T11:57:23.688Z,11.75
2022-12-13T12:00:02.451Z,12.80
2022-12-13T12:02:34.937Z,13.50
2022-12-13T12:05:16.625Z,18.23
2022-12-13T12:08:21.229Z,18.20
2022-12-13T12:10:47.435Z,19.73
2022-12-13T12:13:22.666Z,19.50
2022-12-13T12:15:59.904Z,21.48
2022-12-13T12:18:28.808Z,15.77
2022-12-13T12:21:14.689Z,17.90
2022-12-13T12:23:57.075Z,12.32
2022-12-13T12:26:32.341Z,12.77
2022-12-13T12:29:16.407Z,10.00
2022-12-13T12:31:51.489Z,14.50
2022-12-13T12:34:31.961Z,32.65
2022-12-13T12:37:15.425Z,14.25
2022-12-13T12:39:59.905Z,16.13
2022-12-13T12:43:14.271Z,17.27
2022-12-13T12:45:56.961Z,12.23
2022-12-13T12:49:00.525Z,9.95
2022-12-13T12:51:38.381Z,15.50
2022-12-13T12:54:32.152Z,15.95
2022-12-13T12:57:09.209Z,12.90
2022-12-13T12:59:46.441Z,10.18
2022-12-13T13:02:22.575Z,11.18
2022-12-13T13:04:54.695Z,9.68
2022-12-13T13:07:28.572Z,10.13
2022-12-13T13:09:58.983Z,12.65
2022-12-13T13:12:45.509Z,11.45
2022-12-13T13:15:44.723Z,14.70
2022-12-13T13:18:47.184Z,12.75
2022-12-13T13:21:35.318Z,11.38
2022-12-13T13:24:23.499Z,9.93
2022-12-13T13:26:55.892Z,10.32
2022-12-13T13:29:36.632Z,9.70
2022-12-13T13:32:28.661Z,10.05
2022-12-13T13:35:39.031Z,9.60
2022-12-13T13:38:49.011Z,8.98
2022-12-13T13:41:57.078Z,12.02
2022-12-13T13:44:53.953Z,8.68
2022-12-13T13:47:42.975Z,9.27
2022-12-13T13:50:43.477Z,8.40
2022-12-13T13:53:51.596Z,11.85
2022-12-13T13:56:50.213Z,10.15
2022-12-13T13:59:49.041Z,11.35
2022-12-13T14:02:58.115Z,9.45
2022-12-13T14:05:59.252Z,8.80
2022-12-13T14:08:35.814Z,8.85
2022-12-13T14:11:22.702Z,10.05
2022-12-13T14:14:24.054Z,9.32
2022-12-13T14:17:47.323Z,13.02
2022-12-13T14:20:46.925Z,14.98
2022-12-13T14:23:29.665Z,16.38
2022-12-13T14:26:34.225Z,12.27
2022-12-13T14:29:05.696Z,16.77
2022-12-13T14:31:40.377Z,17.10
2022-12-13T14:34:20.876Z,24.42
2022-12-13T14:36:56.397Z,79.47
2022-12-13T14:39:25.973Z,100.47
2022-12-13T14:41:56.668Z,54.00
2022-12-13T14:44:27.816Z,53.05
2022-12-13T14:46:58.026Z,65.03
2022-12-13T14:49:34.432Z,492.35
2022-12-13T14:52:06.884Z,390.70
2022-12-13T14:54:45.900Z,170.75
2022-12-13T14:57:19.495Z,152.35
2022-12-13T14:59:50.400Z,152.55
2022-12-13T15:02:30.079Z,166.65
2022-12-13T15:05:02.373Z,293.38
2022-12-13T15:07:35.791Z,115.30
2022-12-13T15:10:09.138Z,336.15
2022-12-13T15:12:42.298Z,84.20
2022-12-13T15:15:23.239Z,276.38
2022-12-13T15:18:07.277Z,132.90
2022-12-13T15:20:41.549Z,129.38
2022-12-13T15:23:16.872Z,155.95
2022-12-13T15:25:51.069Z,99.88
2022-12-13T15:28:21.810Z,118.60
2022-12-13T15:30:51.100Z,87.75
2022-12-13T15:33:23.527Z,114.90
2022-12-13T15:36:06.761Z,117.60
2022-12-13T15:38:35.496Z,114.90
2022-12-13T15:41:05.100Z,129.15
2022-12-13T15:43:38.259Z,258.63
2022-12-13T15:46:08.002Z,121.28
2022-12-13T15:48:39.313Z,129.02
2022-12-13T15:51:12.442Z,514.85
2022-12-13T15:53:42.259Z,536.78
2022-12-13T15:56:32.404Z,461.73
2022-12-13T15:59:05.559Z,425.80
2022-12-13T16:01:36.130Z,229.75
2022-12-13T16:04:05.629Z,133.35
2022-12-13T16:06:35.636Z,165.82
2022-12-13T16:09:07.988Z,195.27
2022-12-13T16:11:38.536Z,228.73
2022-12-13T16:14:29.653Z,121.20
2022-12-13T16:17:00.022Z,120.88
2022-12-13T16:19:36.525Z,104.75
2022-12-13T16:22:08.478Z,85.53
2022-12-13T16:24:37.552Z,115.88
2022-12-13T16:27:08.748Z,116.63
2022-12-13T16:29:37.772Z,100.90
2022-12-13T16:32:10.694Z,120.88
2022-12-13T16:34:39.084Z,96.68
2022-12-13T16:37:26.478Z,102.05
2022-12-13T16:40:01.895Z,124.78
2022-12-13T16:42:30.081Z,93.38
2022-12-13T16:45:32.489Z,111.78
2022-12-13T16:47:54.411Z,114.57
2022-12-13T16:50:22.679Z,94.88
2022-12-13T16:52:52.251Z,91.00
2022-12-13T16:55:20.441Z,95.55
2022-12-13T16:57:59.337Z,77.65
2022-12-13T17:00:30.468Z,74.00
2022-12-13T17:02:59.953Z,67.07
2022-12-13T17:05:29.489Z,59.13
2022-12-13T17:07:59.127Z,61.20
2022-12-13T17:10:28.005Z,58.33
2022-12-13T17:12:56.306Z,62.65
2022-12-13T17:15:24.562Z,156.05
2022-12-13T17:17:52.745Z,58.72
2022-12-13T17:20:22.027Z,34.95
2022-12-13T17:22:50.621Z,36.35
2022-12-13T17:25:20.549Z,35.20
2022-12-13T17:27:48.813Z,33.42
2022-12-13T17:30:18.735Z,30.00
2022-12-13T17:32:46.936Z,24.45
2022-12-13T17:35:18.364Z,26.45
2022-12-13T17:37:48.013Z,36.67
2022-12-13T17:40:20.521Z,29.35
2022-12-13T17:42:50.665Z,24.15
2022-12-13T17:45:19.608Z,25.70
2022-12-13T17:47:47.982Z,32.38
2022-12-13T17:50:19.222Z,37.55
2022-12-13T17:52:47.570Z,38.28
2022-12-13T17:55:18.621Z,33.90
2022-12-13T17:57:48.316Z,78.88
2022-12-13T18:00:17.458Z,66.50
2022-12-13T18:02:54.953Z,90.90
2022-12-13T18:05:26.085Z,141.43
2022-12-13T18:07:54.264Z,73.78
2022-12-13T18:10:27.780Z,234.98
2022-12-13T18:12:59.513Z,359.02
2022-12-13T18:15:27.827Z,409.13
2022-12-13T18:18:13.452Z,207.10
2022-12-13T18:20:41.886Z,113.68
2022-12-13T18:23:13.269Z,387.55
2022-12-13T18:25:44.833Z,439.13
2022-12-13T18:28:14.373Z,263.25
2022-12-13T18:30:42.847Z,809.65
2022-12-13T18:33:12.513Z,379.88
2022-12-13T18:35:43.478Z,359.42
2022-12-13T18:43:36.906Z,84.70
2022-12-13T18:46:12.605Z,90.82
2022-12-13T18:48:44.565Z,193.63
2022-12-13T18:51:13.462Z,295.30
2022-12-13T18:53:42.362Z,262.73
2022-12-13T18:56:18.226Z,254.15
2022-12-13T21:03:06.718Z,42.95
2022-12-13T21:16:16.984Z,71.32
2022-12-13T21:18:47.063Z,44.13
2022-12-13T21:21:15.998Z,36.72
2022-12-13T21:23:44.523Z,44.35
2022-12-13T21:26:13.394Z,35.65
2022-12-13T21:28:42.137Z,36.33
2022-12-13T21:31:13.313Z,33.28
2022-12-13T21:33:41.911Z,35.28
2022-12-13T21:36:17.212Z,27.33
2022-12-13T21:38:46.339Z,45.58
2022-12-13T21:41:15.197Z,42.60
2022-12-13T21:43:43.830Z,22.10
2022-12-13T21:46:19.045Z,25.55
2022-12-13T21:48:48.870Z,34.58
2022-12-13T21:51:20.731Z,29.60
2022-12-13T21:53:50.129Z,32.00
2022-12-13T21:56:38.366Z,21.33
2022-12-13T21:59:19.286Z,32.95
2022-12-13T22:02:07.821Z,19.33
2022-12-13T22:04:40.306Z,23.38
2022-12-13T22:25:03.095Z,31.85
2022-12-13T22:27:32.204Z,35.40
2022-12-13T22:30:08.842Z,18.45
2022-12-13T22:32:39.094Z,15.20
2022-12-13T22:35:12.324Z,18.73
2022-12-13T22:37:43.155Z,22.20
2022-12-13T22:40:14.975Z,19.88
2022-12-13T22:45:36.251Z,17.77
2022-12-13T22:48:17.456Z,17.38
2022-12-13T22:50:47.635Z,17.35
2022-12-13T22:53:19.614Z,23.75
2022-12-13T22:56:04.350Z,28.42
2022-12-13T22:58:35.261Z,15.23
2022-12-13T23:01:24.729Z,13.35
2022-12-13T23:03:55.341Z,15.27
2022-12-13T23:06:31.266Z,16.02
2022-12-13T23:09:07.105Z,17.25
2022-12-13T23:12:04.398Z,14.77
2022-12-13T23:14:40.465Z,12.95
2022-12-13T23:17:13.334Z,13.57
2022-12-13T23:19:50.661Z,13.25
2022-12-13T23:22:24.722Z,27.17
2022-12-13T23:24:55.468Z,22.13
2022-12-13T23:27:26.447Z,46.50
2022-12-13T23:29:57.056Z,34.72
2022-12-13T23:32:29.807Z,45.42
2022-12-13T23:34:59.321Z,28.08
2022-12-13T23:37:31.760Z,16.05
2022-12-13T23:40:01.594Z,12.32
2022-12-13T23:42:32.474Z,25.27
2022-12-13T23:45:01.657Z,14.35
2022-12-13T23:47:30.852Z,24.33
2022-12-13T23:50:00.055Z,18.67
2022-12-13T23:55:30.599Z,34.05
2022-12-13T23:58:01.202Z,15.63
